< < Back
Terminal Aerodrome Forecast


Current Version              Previous Versions:   1  2  3  4  5  6  7  8  9  

Terminal Aerodrome Forecast

756
FTUS42 KMLB 312300 AAB
TAFMCO
TAF AMD
KMCO 312306Z 3123/0118 23007KT P6SM SCT060 BKN250
     FM010000 04010KT P6SM SCT060 BKN250
     FM010300 15003KT P6SM FEW060 SCT250
     FM011400 20004KT P6SM FEW020 SCT250=

Latest METAR

789
SAUS70 KWBC 312300 RRC
MTRMCO
METAR KMCO 312253Z 23007KT 10SM SCT055 BKN250 32/21 A2994 RMK AO2 SLP138
CB DSNT NE MOV S T03220206


USA.gov is the U.S. government's official web portal to all federal, state and local government web resources and services.